Time;durP1;ratioP1;P1;durP2;ratioP2;P2;SDS_P1;SDS_P2;PMS_P1;PMS_P2;Temp;Humidity;BMP_temperature;BMP_pressure;BME280_temperature;BME280_humidity;BME280_pressure;Samples;Min_cycle;Max_cycle;Signal;HPM_P1;HPM_P2
2022/11/24 00:01:30;;;;;;;10.33;2.00;;;5.10;99.90;;;;;;5023703;28;20197;-68
2022/11/24 00:03:57;;;;;;;12.17;1.50;;;5.10;99.90;;;;;;5028426;28;20190;-68
2022/11/24 00:06:23;;;;;;;2.77;1.50;;;5.20;99.90;;;;;;5011220;28;20520;-67
2022/11/24 00:08:49;;;;;;;2.70;1.20;;;5.20;99.90;;;;;;5012076;28;20467;-67
2022/11/24 00:11:18;;;;;;;7.47;2.20;;;5.20;99.90;;;;;;5011664;28;20552;-67
2022/11/24 00:13:44;;;;;;;11.43;2.10;;;5.20;99.90;;;;;;5010988;28;20430;-67
2022/11/24 00:16:13;;;;;;;4.00;0.93;;;5.20;99.90;;;;;;5010588;28;20961;-68
2022/11/24 00:18:40;;;;;;;5.00;1.77;;;5.20;99.90;;;;;;5012836;28;20430;-67
2022/11/24 00:21:06;;;;;;;5.37;1.90;;;5.10;99.90;;;;;;5019035;28;20422;-67
2022/11/24 00:23:32;;;;;;;6.70;1.10;;;5.10;99.90;;;;;;5026131;28;20476;-67
2022/11/24 00:26:23;;;;;;;1.47;0.87;;;5.10;99.90;;;;;;5031618;28;20467;-67
2022/11/24 00:28:50;;;;;;;2.10;1.30;;;5.10;99.90;;;;;;5026979;28;20812;-67
2022/11/24 00:31:22;;;;;;;7.10;2.03;;;5.10;99.90;;;;;;5022388;28;20477;-67
2022/11/24 00:33:49;;;;;;;3.90;1.40;;;5.10;99.90;;;;;;5031160;28;20448;-67
2022/11/24 00:36:16;;;;;;;4.53;1.37;;;5.10;99.90;;;;;;5031089;28;20472;-67
2022/11/24 00:38:42;;;;;;;7.70;1.93;;;5.10;99.90;;;;;;5031100;28;20452;-67
2022/11/24 00:41:08;;;;;;;3.57;1.33;;;5.10;99.90;;;;;;5031526;28;20430;-66
2022/11/24 00:43:34;;;;;;;1.90;0.73;;;5.10;99.90;;;;;;5017655;28;20432;-68
2022/11/24 00:45:59;;;;;;;2.23;1.57;;;5.20;99.90;;;;;;5023558;28;20212;-67
2022/11/24 00:48:25;;;;;;;3.13;1.30;;;5.20;99.90;;;;;;5031185;28;20193;-67
2022/11/24 00:51:02;;;;;;;9.60;1.63;;;5.20;99.90;;;;;;5028804;28;20281;-67
2022/11/24 00:53:29;;;;;;;3.93;1.20;;;5.20;99.90;;;;;;5022388;28;20170;-68
2022/11/24 00:55:55;;;;;;;5.00;1.37;;;5.10;99.90;;;;;;5015164;28;20929;-67
2022/11/24 00:58:21;;;;;;;2.10;1.10;;;5.10;99.90;;;;;;5028213;28;20413;-67
2022/11/24 01:00:48;;;;;;;3.90;1.43;;;5.10;99.90;;;;;;5015195;28;20179;-67
2022/11/24 01:03:14;;;;;;;2.03;1.10;;;5.10;99.90;;;;;;5001660;28;20430;-67
2022/11/24 01:05:41;;;;;;;6.90;1.40;;;5.10;99.90;;;;;;5027638;28;20421;-67
2022/11/24 01:08:07;;;;;;;3.33;0.80;;;5.10;99.90;;;;;;5028605;28;20426;-67
2022/11/24 01:10:33;;;;;;;3.87;1.70;;;5.30;99.90;;;;;;5029142;28;20788;-67
2022/11/24 01:12:59;;;;;;;5.20;2.17;;;5.10;99.90;;;;;;5002106;28;20969;-67
2022/11/24 01:15:25;;;;;;;3.50;0.80;;;5.10;99.90;;;;;;5027690;28;20500;-67
2022/11/24 01:17:51;;;;;;;5.10;1.37;;;5.20;99.90;;;;;;5021881;28;20432;-67
2022/11/24 01:20:17;;;;;;;6.67;1.57;;;5.20;99.90;;;;;;5027827;28;20416;-67
2022/11/24 01:22:42;;;;;;;7.53;1.30;;;5.20;99.90;;;;;;5019031;28;20183;-67
2022/11/24 01:25:09;;;;;;;3.83;1.60;;;5.20;99.90;;;;;;5014915;28;20183;-67
2022/11/24 01:27:35;;;;;;;7.23;1.70;;;5.20;99.90;;;;;;5015033;28;20270;-67
2022/11/24 01:30:01;;;;;;;2.40;0.93;;;5.10;99.90;;;;;;5027749;28;20551;-67
2022/11/24 01:32:27;;;;;;;4.30;1.27;;;5.10;99.90;;;;;;5033958;28;20201;-67
2022/11/24 01:34:52;;;;;;;5.23;1.67;;;5.00;99.90;;;;;;5021336;28;20532;-67
2022/11/24 01:37:18;;;;;;;3.83;1.33;;;5.00;99.90;;;;;;5034737;28;20174;-67
2022/11/24 01:39:44;;;;;;;7.13;1.30;;;5.00;99.90;;;;;;5020839;28;20191;-67
2022/11/24 01:42:09;;;;;;;4.90;1.20;;;5.10;99.90;;;;;;5023677;28;20178;-67
2022/11/24 01:44:35;;;;;;;10.87;1.53;;;5.10;99.90;;;;;;5030722;28;20792;-67
2022/11/24 01:47:06;;;;;;;2.40;0.93;;;5.10;99.90;;;;;;5027264;28;20183;-67
2022/11/24 01:49:47;;;;;;;4.33;1.20;;;5.10;99.90;;;;;;5028835;28;20178;-67
2022/11/24 01:52:17;;;;;;;11.80;1.30;;;5.20;99.90;;;;;;5033481;28;20425;-67
2022/11/24 01:54:49;;;;;;;4.47;1.27;;;5.20;99.90;;;;;;5030670;28;20919;-67
2022/11/24 01:57:32;;;;;;;6.07;1.20;;;5.20;99.90;;;;;;5025392;28;20416;-67
2022/11/24 02:00:03;;;;;;;3.63;1.20;;;5.20;99.90;;;;;;5033509;28;20567;-67
2022/11/24 02:02:29;;;;;;;2.60;1.13;;;5.20;99.90;;;;;;5019436;28;20472;-67
2022/11/24 02:04:58;;;;;;;4.50;1.27;;;5.20;99.90;;;;;;5033920;28;20433;-67
2022/11/24 02:07:25;;;;;;;2.70;1.17;;;5.20;99.90;;;;;;5033625;28;20186;-67
2022/11/24 02:09:54;;;;;;;6.33;1.37;;;5.20;99.90;;;;;;5026217;28;20466;-67
2022/11/24 02:12:22;;;;;;;3.17;1.07;;;5.20;99.90;;;;;;5028399;28;20432;-67
2022/11/24 02:14:48;;;;;;;2.80;1.27;;;5.10;99.90;;;;;;5024117;28;20469;-67
2022/11/24 02:17:13;;;;;;;7.50;1.23;;;5.10;99.90;;;;;;5027067;28;20425;-67
2022/11/24 02:19:43;;;;;;;2.13;0.90;;;5.10;99.90;;;;;;5021802;28;20413;-67
2022/11/24 02:22:23;;;;;;;6.97;0.87;;;5.10;99.90;;;;;;5025148;28;20175;-67
2022/11/24 02:24:55;;;;;;;2.93;1.20;;;5.10;99.90;;;;;;5029961;28;20460;-67
2022/11/24 02:27:20;;;;;;;2.30;1.13;;;5.10;99.90;;;;;;5028262;28;20426;-67
2022/11/24 02:29:47;;;;;;;2.70;0.70;;;5.10;99.90;;;;;;5024737;28;20468;-67
2022/11/24 02:32:14;;;;;;;7.80;1.07;;;5.10;99.90;;;;;;5026461;28;20186;-67
2022/11/24 02:34:40;;;;;;;11.27;0.90;;;5.10;99.90;;;;;;5021242;28;20418;-67
2022/11/24 02:37:05;;;;;;;1.70;1.13;;;5.00;99.90;;;;;;5032886;28;20425;-68
2022/11/24 02:39:31;;;;;;;16.07;0.93;;;5.00;99.90;;;;;;5033636;28;20559;-68
2022/11/24 02:42:04;;;;;;;5.20;1.70;;;5.00;99.90;;;;;;5029924;28;20566;-67
2022/11/24 02:44:35;;;;;;;1.10;0.50;;;5.10;99.90;;;;;;5016624;28;20187;-67
2022/11/24 02:47:10;;;;;;;5.07;0.83;;;5.10;99.90;;;;;;5030367;28;20474;-67
2022/11/24 02:49:36;;;;;;;1.30;0.80;;;5.10;99.90;;;;;;5028685;28;20499;-67
2022/11/24 02:52:03;;;;;;;2.80;0.87;;;5.10;99.90;;;;;;5024133;28;20521;-68
2022/11/24 02:54:29;;;;;;;2.57;0.80;;;5.10;99.90;;;;;;5029061;28;20460;-67
2022/11/24 02:56:54;;;;;;;2.33;0.90;;;5.00;99.90;;;;;;5033181;28;21025;-67
2022/11/24 02:59:20;;;;;;;3.30;1.23;;;5.10;99.90;;;;;;5030157;28;20240;-67
2022/11/24 03:01:46;;;;;;;2.50;0.60;;;5.00;99.90;;;;;;5014557;28;20519;-67
2022/11/24 03:04:11;;;;;;;2.23;1.10;;;5.00;99.90;;;;;;5015277;28;20187;-67
2022/11/24 03:06:37;;;;;;;1.53;0.93;;;5.10;99.90;;;;;;5023063;28;20727;-67
2022/11/24 03:09:03;;;;;;;1.73;0.80;;;5.10;99.90;;;;;;5028266;28;20193;-67
2022/11/24 03:11:29;;;;;;;3.37;1.40;;;5.10;99.90;;;;;;5023217;28;20469;-67
2022/11/24 03:13:54;;;;;;;3.67;0.97;;;5.10;99.90;;;;;;5026206;28;20429;-67
2022/11/24 03:16:20;;;;;;;1.60;0.90;;;5.10;99.90;;;;;;5011413;28;20191;-67
2022/11/24 03:18:49;;;;;;;3.63;1.77;;;5.00;99.90;;;;;;5012255;28;20222;-67
2022/11/24 03:21:14;;;;;;;1.40;0.60;;;5.00;99.90;;;;;;5019977;28;20513;-67
2022/11/24 03:23:40;;;;;;;5.83;1.33;;;5.00;99.90;;;;;;5019221;28;20429;-67
2022/11/24 03:26:08;;;;;;;3.10;1.13;;;5.00;99.90;;;;;;5031788;28;20303;-67
2022/11/24 03:28:33;;;;;;;2.70;1.00;;;5.00;99.90;;;;;;5031151;28;20201;-67
2022/11/24 03:30:59;;;;;;;7.20;2.23;;;5.00;99.90;;;;;;5032174;28;20473;-67
2022/11/24 03:33:25;;;;;;;6.17;1.00;;;5.10;99.90;;;;;;5024402;28;20604;-67
2022/11/24 03:35:50;;;;;;;5.27;1.13;;;5.10;99.90;;;;;;5021790;28;20616;-67
2022/11/24 03:38:16;;;;;;;17.93;1.50;;;5.20;99.90;;;;;;5030924;28;20196;-67
2022/11/24 03:40:41;;;;;;;4.40;1.50;;;5.20;99.90;;;;;;5013702;28;20191;-67
2022/11/24 03:43:07;;;;;;;18.00;1.40;;;5.30;99.90;;;;;;5023291;28;20194;-67
2022/11/24 03:45:32;;;;;;;1.80;0.90;;;5.30;99.90;;;;;;5014190;28;20187;-67
2022/11/24 03:47:58;;;;;;;12.23;1.57;;;5.40;99.90;;;;;;5012004;28;20262;-67
2022/11/24 03:50:24;;;;;;;5.80;1.73;;;5.40;99.90;;;;;;5025619;28;20261;-67
2022/11/24 03:52:49;;;;;;;1.70;0.80;;;5.40;99.90;;;;;;5011687;28;20274;-67
2022/11/24 03:55:15;;;;;;;2.00;0.93;;;5.30;99.90;;;;;;5029273;28;20206;-67
2022/11/24 03:57:40;;;;;;;9.40;1.70;;;5.40;99.90;;;;;;5032191;28;20186;-67
2022/11/24 04:00:07;;;;;;;2.20;1.37;;;5.30;99.90;;;;;;5027259;28;20282;-66
2022/11/24 04:02:32;;;;;;;2.07;1.20;;;5.30;99.90;;;;;;5011414;28;20205;-67
2022/11/24 04:04:58;;;;;;;4.20;1.27;;;5.30;99.90;;;;;;5027852;28;20894;-67
2022/11/24 04:07:24;;;;;;;7.40;1.17;;;5.20;99.90;;;;;;5031838;28;20212;-67
2022/11/24 04:09:49;;;;;;;2.20;0.90;;;5.30;99.90;;;;;;5031692;28;20205;-67
2022/11/24 04:14:59;;;;;;;4.23;1.20;;;5.40;99.90;;;;;;5026554;28;20256;-67
2022/11/24 04:17:25;;;;;;;3.53;1.70;;;5.40;99.90;;;;;;5031613;28;20532;-67
2022/11/24 04:19:50;;;;;;;9.20;1.47;;;5.50;99.90;;;;;;5018047;28;20189;-67
2022/11/24 04:22:16;;;;;;;5.30;0.83;;;5.50;99.90;;;;;;5022257;28;20261;-67
2022/11/24 04:24:42;;;;;;;7.73;1.80;;;5.60;99.90;;;;;;5021421;28;20278;-67
2022/11/24 04:27:07;;;;;;;10.53;2.37;;;5.60;99.90;;;;;;5019882;28;21003;-67
2022/11/24 04:29:33;;;;;;;6.50;3.00;;;5.60;99.90;;;;;;5011366;28;20187;-67
2022/11/24 04:31:58;;;;;;;11.23;2.87;;;5.70;99.90;;;;;;5023808;28;20186;-67
2022/11/24 04:34:24;;;;;;;10.50;1.07;;;5.70;99.90;;;;;;5021150;28;20248;-67
2022/11/24 04:36:49;;;;;;;6.10;1.30;;;5.60;99.90;;;;;;5017890;28;20673;-67
2022/11/24 04:39:16;;;;;;;5.10;1.63;;;5.50;99.90;;;;;;5031361;28;20265;-66
2022/11/24 04:41:41;;;;;;;3.50;0.93;;;5.40;99.90;;;;;;5014965;28;20203;-66
2022/11/24 04:44:07;;;;;;;2.03;0.70;;;5.40;99.90;;;;;;5016734;28;20422;-66
2022/11/24 04:46:32;;;;;;;6.60;1.53;;;5.30;99.90;;;;;;5014140;28;20197;-67
2022/11/24 04:48:58;;;;;;;8.83;1.40;;;5.30;99.90;;;;;;5031151;28;20238;-67
2022/11/24 04:51:24;;;;;;;6.37;0.80;;;5.20;99.90;;;;;;5029947;28;20317;-67
2022/11/24 04:53:49;;;;;;;7.20;0.87;;;5.20;99.90;;;;;;5022196;28;20203;-67
2022/11/24 04:56:15;;;;;;;6.13;1.83;;;5.20;99.90;;;;;;5026915;28;20198;-67
2022/11/24 04:58:41;;;;;;;2.30;1.13;;;5.20;99.90;;;;;;5031117;28;20178;-67
2022/11/24 05:01:08;;;;;;;3.17;1.20;;;5.20;99.90;;;;;;5031183;28;20421;-67
2022/11/24 05:03:35;;;;;;;7.70;1.40;;;5.10;99.90;;;;;;5028602;28;20194;-66
2022/11/24 05:06:01;;;;;;;13.90;2.00;;;5.10;99.90;;;;;;5013800;28;20422;-67
2022/11/24 05:08:27;;;;;;;2.33;0.70;;;5.20;99.90;;;;;;5031358;28;20421;-67
2022/11/24 05:10:52;;;;;;;2.60;1.33;;;5.20;99.90;;;;;;5019302;28;20465;-66
2022/11/24 05:13:18;;;;;;;3.37;1.33;;;5.30;99.90;;;;;;5018609;28;20183;-66
2022/11/24 05:15:43;;;;;;;8.90;1.30;;;5.30;99.90;;;;;;5028528;28;20725;-66
2022/11/24 05:18:14;;;;;;;5.10;0.90;;;5.30;99.90;;;;;;5030879;28;20182;-66
2022/11/24 05:20:40;;;;;;;5.53;1.27;;;5.30;99.90;;;;;;5027223;28;20675;-66
2022/11/24 05:23:07;;;;;;;3.90;1.33;;;5.30;99.90;;;;;;5029366;28;20422;-66
2022/11/24 05:25:33;;;;;;;3.60;1.37;;;5.40;99.90;;;;;;5031184;28;20178;-65
2022/11/24 05:28:04;;;;;;;6.90;1.43;;;5.40;99.90;;;;;;5030646;28;20441;-66
2022/11/24 05:30:30;;;;;;;2.33;1.27;;;5.50;99.90;;;;;;5029855;28;20460;-66
2022/11/24 05:32:55;;;;;;;7.17;1.80;;;5.50;99.90;;;;;;5030308;28;20424;-65
2022/11/24 05:35:21;;;;;;;10.37;1.20;;;5.50;99.90;;;;;;5018406;28;20421;-65
2022/11/24 05:37:47;;;;;;;7.27;1.43;;;5.50;99.90;;;;;;5024542;28;20175;-66
2022/11/24 05:40:13;;;;;;;14.33;1.60;;;5.60;99.90;;;;;;5023635;28;20210;-65
2022/11/24 05:42:41;;;;;;;13.43;1.17;;;5.60;99.90;;;;;;5031415;28;20499;-67
2022/11/24 05:45:13;;;;;;;5.40;2.03;;;5.50;99.90;;;;;;5021244;28;20179;-68
2022/11/24 05:47:40;;;;;;;6.03;1.60;;;5.50;99.90;;;;;;5014628;28;20450;-68
2022/11/24 05:50:11;;;;;;;4.07;1.63;;;5.50;99.90;;;;;;5028450;28;20468;-68
2022/11/24 05:52:36;;;;;;;6.07;1.13;;;5.50;99.90;;;;;;5020618;28;20521;-68
2022/11/24 05:55:03;;;;;;;4.00;1.40;;;5.50;99.90;;;;;;5027777;28;21024;-68
2022/11/24 05:57:28;;;;;;;10.00;0.97;;;5.50;99.90;;;;;;5022580;28;20701;-68
2022/11/24 05:59:54;;;;;;;7.73;1.60;;;5.50;99.90;;;;;;5020459;28;20426;-68
2022/11/24 06:02:20;;;;;;;6.27;1.93;;;5.50;99.90;;;;;;5033019;28;20222;-68
2022/11/24 06:04:45;;;;;;;7.33;1.03;;;5.50;99.90;;;;;;5028735;28;20229;-68
2022/11/24 06:07:11;;;;;;;7.50;2.03;;;5.50;99.90;;;;;;5024768;28;20187;-68
2022/11/24 06:09:38;;;;;;;4.77;1.07;;;5.60;99.90;;;;;;5015720;28;20187;-68
2022/11/24 06:12:06;;;;;;;8.70;2.00;;;5.60;99.90;;;;;;5033827;28;20500;-68
2022/11/24 06:14:32;;;;;;;5.53;1.63;;;5.60;99.90;;;;;;5028312;28;20414;-68
2022/11/24 06:16:57;;;;;;;2.33;1.10;;;5.60;99.90;;;;;;5033722;28;20495;-68
2022/11/24 06:19:23;;;;;;;8.40;1.80;;;5.60;99.90;;;;;;5032178;28;20174;-68
2022/11/24 06:21:49;;;;;;;7.07;1.53;;;5.60;99.90;;;;;;5033099;28;20241;-68
2022/11/24 06:24:14;;;;;;;17.87;1.90;;;5.50;99.90;;;;;;5033854;28;20193;-68
2022/11/24 06:26:40;;;;;;;3.70;1.57;;;5.50;99.90;;;;;;5034111;28;20182;-67
2022/11/24 06:29:06;;;;;;;2.43;0.90;;;5.50;99.90;;;;;;5033358;28;20232;-67
2022/11/24 06:31:32;;;;;;;10.20;1.37;;;5.50;99.90;;;;;;5033187;28;20471;-67
2022/11/24 06:33:59;;;;;;;7.43;1.70;;;5.40;99.90;;;;;;5032655;28;20432;-67
2022/11/24 06:36:25;;;;;;;4.37;1.60;;;5.50;99.90;;;;;;5033805;28;20743;-67
2022/11/24 06:38:51;;;;;;;4.63;0.93;;;5.50;99.90;;;;;;5028215;28;20467;-67
2022/11/24 06:41:18;;;;;;;6.43;1.60;;;5.50;99.90;;;;;;5022374;28;20511;-67
2022/11/24 06:43:44;;;;;;;4.80;1.97;;;5.50;99.90;;;;;;5031029;28;20421;-67
2022/11/24 06:46:11;;;;;;;6.00;2.20;;;5.50;99.90;;;;;;5022299;28;20451;-67
2022/11/24 06:48:37;;;;;;;5.40;1.87;;;5.50;99.90;;;;;;5032919;28;20421;-67
2022/11/24 06:51:05;;;;;;;3.43;1.43;;;5.60;99.90;;;;;;5032554;28;20464;-65
2022/11/24 06:53:37;;;;;;;4.90;1.20;;;5.60;99.90;;;;;;5022887;28;20581;-65
2022/11/24 06:56:05;;;;;;;14.73;2.10;;;5.70;99.90;;;;;;5033800;28;20425;-65
2022/11/24 06:58:30;;;;;;;6.20;2.13;;;5.70;99.90;;;;;;5033552;28;20918;-64
2022/11/24 07:00:56;;;;;;;6.00;1.10;;;5.70;99.90;;;;;;5034929;28;20467;-65
2022/11/24 07:03:22;;;;;;;2.67;1.20;;;5.70;99.90;;;;;;5018978;28;20274;-64
2022/11/24 07:05:48;;;;;;;7.73;1.90;;;5.70;99.90;;;;;;5030275;28;20182;-64
2022/11/24 07:08:13;;;;;;;2.63;1.27;;;5.70;99.90;;;;;;5036770;28;20187;-64
2022/11/24 07:10:39;;;;;;;5.10;1.87;;;5.70;99.90;;;;;;5030726;28;20204;-64
2022/11/24 07:13:08;;;;;;;8.03;1.93;;;5.70;99.90;;;;;;5035703;28;20426;-63
2022/11/24 07:15:34;;;;;;;9.23;2.40;;;5.70;99.90;;;;;;5022882;28;20171;-65
2022/11/24 07:17:59;;;;;;;6.03;1.80;;;5.70;99.90;;;;;;5019204;28;21136;-65
2022/11/24 07:20:25;;;;;;;3.13;1.00;;;5.70;99.90;;;;;;5030860;28;20183;-66
2022/11/24 07:22:55;;;;;;;10.40;1.63;;;5.70;99.90;;;;;;5018103;28;20619;-66
2022/11/24 07:25:21;;;;;;;16.70;1.73;;;5.70;99.90;;;;;;5032160;28;20221;-66
2022/11/24 07:27:46;;;;;;;4.63;1.90;;;5.60;99.90;;;;;;5032142;28;20917;-66
2022/11/24 07:30:12;;;;;;;3.20;1.50;;;5.60;99.90;;;;;;5031417;28;20201;-67
2022/11/24 07:32:37;;;;;;;22.23;2.50;;;5.60;99.90;;;;;;5016785;28;20183;-69
2022/11/24 07:35:03;;;;;;;10.43;2.40;;;5.60;99.90;;;;;;5012032;28;20179;-68
2022/11/24 07:37:29;;;;;;;4.40;2.00;;;5.50;99.90;;;;;;5006265;28;20183;-68
2022/11/24 07:39:55;;;;;;;21.23;2.00;;;5.50;99.90;;;;;;5014539;28;20484;-67
2022/11/24 07:42:20;;;;;;;6.73;2.53;;;5.50;99.90;;;;;;5008473;28;20767;-68
2022/11/24 07:44:46;;;;;;;2.20;1.23;;;5.50;99.90;;;;;;5012571;28;20195;-70
2022/11/24 07:47:12;;;;;;;13.40;1.87;;;5.50;99.90;;;;;;5007906;28;20214;-72
2022/11/24 07:49:37;;;;;;;8.93;1.63;;;5.50;99.90;;;;;;5010463;28;20232;-70
2022/11/24 07:52:03;;;;;;;2.13;1.17;;;5.50;99.90;;;;;;5010538;28;20254;-69
2022/11/24 07:54:30;;;;;;;5.83;1.63;;;5.50;99.90;;;;;;5008617;28;20218;-69
2022/11/24 07:56:55;;;;;;;6.87;1.83;;;5.50;99.90;;;;;;5012383;28;20480;-71
2022/11/24 07:59:21;;;;;;;3.40;1.53;;;5.50;99.90;;;;;;5005869;28;20944;-70
2022/11/24 08:01:47;;;;;;;7.03;1.30;;;5.50;99.90;;;;;;5011185;28;20207;-68
2022/11/24 08:04:12;;;;;;;2.23;1.00;;;5.50;99.90;;;;;;5009616;28;20195;-68
2022/11/24 08:06:38;;;;;;;5.27;2.00;;;5.50;99.90;;;;;;5015928;28;20198;-71
2022/11/24 08:09:04;;;;;;;3.50;1.40;;;5.60;99.90;;;;;;5006656;28;20243;-69
2022/11/24 08:11:30;;;;;;;2.77;1.47;;;5.60;99.90;;;;;;5014775;28;20666;-69
2022/11/24 08:13:56;;;;;;;2.40;0.83;;;5.60;99.90;;;;;;5026026;28;20171;-69
2022/11/24 08:16:21;;;;;;;2.50;1.23;;;5.60;99.90;;;;;;5020023;28;20474;-68
2022/11/24 08:18:52;;;;;;;1.43;0.50;;;5.60;99.90;;;;;;5003321;28;20179;-69
2022/11/24 08:21:19;;;;;;;2.90;0.80;;;5.60;99.90;;;;;;5006744;28;20221;-69
2022/11/24 08:23:44;;;;;;;1.50;0.90;;;5.50;99.90;;;;;;5013949;28;20435;-68
2022/11/24 08:26:14;;;;;;;1.43;0.53;;;5.50;99.90;;;;;;5009943;28;21009;-69
2022/11/24 08:28:40;;;;;;;1.73;0.73;;;5.50;99.90;;;;;;5013513;28;20187;-68
2022/11/24 08:31:08;;;;;;;6.23;0.90;;;5.50;99.90;;;;;;5011716;28;21004;-69
2022/11/24 08:33:35;;;;;;;1.83;0.60;;;5.50;99.90;;;;;;5012430;28;20413;-69
2022/11/24 08:36:09;;;;;;;1.83;0.87;;;5.40;99.90;;;;;;5017734;28;20498;-69
2022/11/24 08:38:35;;;;;;;4.63;1.43;;;5.50;99.90;;;;;;5000969;28;20892;-69
2022/11/24 08:41:08;;;;;;;2.53;0.80;;;5.50;99.90;;;;;;5015238;28;20418;-70
2022/11/24 08:43:34;;;;;;;3.13;0.87;;;5.50;99.90;;;;;;5008099;28;20606;-69
2022/11/24 08:46:05;;;;;;;7.43;1.17;;;5.50;99.90;;;;;;5017235;28;20451;-70
2022/11/24 08:48:31;;;;;;;6.10;1.40;;;5.50;99.90;;;;;;5008173;28;21249;-70
2022/11/24 08:50:58;;;;;;;3.23;0.60;;;5.50;99.90;;;;;;5014053;28;20465;-70
2022/11/24 08:53:25;;;;;;;1.57;0.70;;;5.50;99.90;;;;;;5010043;28;20441;-70
2022/11/24 08:55:51;;;;;;;1.87;0.60;;;5.50;99.90;;;;;;5016820;28;20501;-70
2022/11/24 08:58:16;;;;;;;1.50;0.60;;;5.60;99.90;;;;;;5011250;28;20513;-70
2022/11/24 09:00:42;;;;;;;1.10;0.50;;;5.60;99.90;;;;;;5029675;28;20182;-70
2022/11/24 09:03:10;;;;;;;1.40;0.63;;;5.80;99.90;;;;;;5015073;28;20672;-70
2022/11/24 09:05:36;;;;;;;1.40;0.90;;;5.90;99.90;;;;;;5017426;28;20409;-70
2022/11/24 09:08:02;;;;;;;1.10;0.40;;;6.00;99.90;;;;;;5000176;28;20442;-70
2022/11/24 09:10:27;;;;;;;1.50;0.60;;;6.00;99.90;;;;;;5001540;28;20466;-70
2022/11/24 09:12:53;;;;;;;4.47;0.50;;;6.00;99.90;;;;;;5005839;28;20613;-70
2022/11/24 09:15:19;;;;;;;1.20;0.60;;;6.00;99.90;;;;;;5003292;28;21010;-71
2022/11/24 09:17:45;;;;;;;1.10;0.40;;;6.00;99.90;;;;;;5006244;28;20556;-69
2022/11/24 09:20:10;;;;;;;1.30;0.50;;;6.00;99.90;;;;;;5015751;28;20190;-70
2022/11/24 09:22:37;;;;;;;3.00;0.60;;;6.10;99.90;;;;;;5006359;28;20703;-70
2022/11/24 09:25:04;;;;;;;1.30;0.57;;;6.10;99.90;;;;;;5012985;28;20567;-70
2022/11/24 09:27:30;;;;;;;1.10;0.40;;;6.30;99.90;;;;;;5010305;28;20442;-70
2022/11/24 09:29:55;;;;;;;1.10;0.40;;;6.50;99.90;;;;;;5012090;28;20807;-70
2022/11/24 09:32:21;;;;;;;1.20;0.50;;;6.60;99.90;;;;;;5020161;28;20265;-70
2022/11/24 09:34:49;;;;;;;1.10;0.50;;;6.80;99.90;;;;;;5022673;28;20180;-70
2022/11/24 09:37:16;;;;;;;1.10;0.47;;;6.90;99.90;;;;;;5010880;28;20180;-70
2022/11/24 09:39:41;;;;;;;1.27;0.60;;;7.00;99.90;;;;;;5011428;28;20827;-70
2022/11/24 09:42:19;;;;;;;1.57;0.80;;;7.00;99.90;;;;;;5018849;28;20441;-70
2022/11/24 09:44:55;;;;;;;3.93;0.87;;;6.90;99.90;;;;;;5016723;28;20210;-70
2022/11/24 09:47:52;;;;;;;1.90;0.70;;;6.90;99.90;;;;;;5012091;28;20445;-70
2022/11/24 09:50:22;;;;;;;1.30;0.50;;;7.00;99.90;;;;;;5007993;28;20512;-70
2022/11/24 09:53:14;;;;;;;1.10;0.43;;;6.90;99.90;;;;;;5010584;28;20429;-70
2022/11/24 09:55:47;;;;;;;1.43;0.50;;;6.90;99.90;;;;;;5004977;28;20528;-70
2022/11/24 09:58:31;;;;;;;1.93;0.80;;;6.90;99.90;;;;;;5015142;28;20433;-70
2022/11/24 10:00:57;;;;;;;1.27;0.60;;;6.90;99.90;;;;;;5012746;28;20453;-70
2022/11/24 10:03:37;;;;;;;1.40;0.60;;;6.90;99.90;;;;;;5010526;28;20446;-69
2022/11/24 10:06:15;;;;;;;1.10;0.50;;;7.00;99.90;;;;;;5029301;28;20186;-69
2022/11/24 10:08:59;;;;;;;1.77;0.70;;;7.00;99.90;;;;;;5010840;28;20446;-70
2022/11/24 10:11:35;;;;;;;1.80;0.63;;;7.00;99.90;;;;;;5025174;28;20873;-69
2022/11/24 10:14:23;;;;;;;1.43;0.70;;;7.10;99.90;;;;;;5052105;23;20521;-69
2022/11/24 10:17:12;;;;;;;1.50;0.60;;;7.20;99.90;;;;;;5086596;28;20438;-70
2022/11/24 10:19:37;;;;;;;1.10;0.50;;;7.30;99.90;;;;;;5091592;28;20433;-70
2022/11/24 10:22:44;;;;;;;4.47;0.67;;;7.30;99.90;;;;;;5090462;28;20426;-70
2022/11/24 10:25:17;;;;;;;1.30;0.50;;;7.30;99.90;;;;;;5075227;28;20578;-70
2022/11/24 10:27:47;;;;;;;1.30;0.50;;;7.20;99.90;;;;;;5085943;28;20809;-70
2022/11/24 10:30:22;;;;;;;1.30;0.63;;;7.10;99.90;;;;;;5086087;28;21183;-70
2022/11/24 10:33:02;;;;;;;2.90;0.60;;;7.00;99.90;;;;;;5088626;28;20898;-70
2022/11/24 10:35:44;;;;;;;3.10;1.17;;;7.00;99.90;;;;;;5093062;28;20426;-70
2022/11/24 10:38:21;;;;;;;1.63;0.80;;;7.00;99.90;;;;;;5078871;28;20415;-70
2022/11/24 10:40:52;;;;;;;1.70;0.90;;;7.10;99.90;;;;;;5080270;28;20414;-70
2022/11/24 10:43:18;;;;;;;8.93;0.80;;;7.20;99.90;;;;;;5090513;28;20434;-70
2022/11/24 10:45:44;;;;;;;2.90;0.60;;;7.40;99.90;;;;;;5092319;28;20444;-67
2022/11/24 10:48:38;;;;;;;1.30;0.50;;;7.50;99.90;;;;;;5092283;28;20927;-67
2022/11/24 10:51:55;;;;;;;1.30;0.63;;;7.50;99.90;;;;;;5089851;28;20226;-67
2022/11/24 10:54:22;;;;;;;2.60;1.03;;;7.50;99.90;;;;;;5053214;28;20526;-67
2022/11/24 10:56:50;;;;;;;1.30;0.63;;;7.60;99.90;;;;;;5091744;28;20420;-67
2022/11/24 10:59:37;;;;;;;7.20;0.97;;;7.80;99.90;;;;;;5092346;28;20460;-68
2022/11/24 11:02:38;;;;;;;1.40;0.60;;;8.00;99.90;;;;;;5083909;28;20418;-67
2022/11/24 11:05:22;;;;;;;1.30;0.60;;;8.10;99.90;;;;;;5089377;28;20487;-68
2022/11/24 11:07:47;;;;;;;4.50;1.00;;;8.20;99.90;;;;;;5092641;28;20495;-68
2022/11/24 11:10:20;;;;;;;1.67;0.80;;;8.30;99.90;;;;;;5092391;28;20489;-68
2022/11/24 11:12:45;;;;;;;1.63;0.60;;;8.60;99.90;;;;;;5090363;28;20217;-69
2022/11/24 11:15:29;;;;;;;2.43;0.80;;;8.90;99.90;;;;;;5092340;28;20442;-69
2022/11/24 11:17:58;;;;;;;5.43;1.43;;;9.30;99.90;;;;;;5092258;28;20641;-69
2022/11/24 11:20:30;;;;;;;1.20;0.50;;;9.40;99.90;;;;;;5092640;28;20418;-69
2022/11/24 11:22:58;;;;;;;4.63;0.93;;;9.70;99.90;;;;;;5077965;28;20497;-69
2022/11/24 11:25:32;;;;;;;1.30;0.57;;;9.60;99.90;;;;;;5092128;28;20419;-69
2022/11/24 11:28:27;;;;;;;1.53;0.70;;;9.50;99.90;;;;;;5092215;28;20439;-69
2022/11/24 11:31:03;;;;;;;2.03;0.60;;;9.40;99.90;;;;;;5084939;28;20489;-69
2022/11/24 11:33:30;;;;;;;3.90;1.10;;;9.50;99.90;;;;;;5085096;28;20421;-69
2022/11/24 11:35:59;;;;;;;1.50;0.57;;;9.40;99.90;;;;;;5092149;28;20422;-69
2022/11/24 11:38:34;;;;;;;1.97;0.90;;;9.40;99.90;;;;;;5085458;28;20441;-69
2022/11/24 11:41:01;;;;;;;2.97;1.23;;;9.20;99.90;;;;;;5083176;28;20949;-69
2022/11/24 11:43:39;;;;;;;1.90;0.77;;;9.10;99.90;;;;;;5090422;28;20438;-69
2022/11/24 11:46:10;;;;;;;1.73;0.80;;;9.10;99.90;;;;;;5084268;28;20445;-69
2022/11/24 11:48:39;;;;;;;2.90;1.17;;;9.20;99.90;;;;;;5082772;28;20438;-69
2022/11/24 11:51:42;;;;;;;3.00;0.80;;;9.40;99.90;;;;;;5085930;28;20560;-69
2022/11/24 11:54:11;;;;;;;3.60;1.00;;;9.50;99.90;;;;;;5083768;28;20436;-68
2022/11/24 11:56:46;;;;;;;3.07;0.90;;;9.60;99.90;;;;;;5085439;28;20442;-68
2022/11/24 11:59:21;;;;;;;1.87;0.80;;;9.60;99.90;;;;;;5087982;28;20903;-68
2022/11/24 12:01:55;;;;;;;5.57;1.00;;;9.40;99.90;;;;;;5082649;28;20425;-68
2022/11/24 12:04:36;;;;;;;4.07;0.77;;;9.40;99.90;;;;;;5076384;28;20442;-68
2022/11/24 12:07:27;;;;;;;4.37;1.07;;;9.40;99.90;;;;;;5080997;28;20903;-68
2022/11/24 12:10:10;;;;;;;2.60;1.10;;;9.20;99.90;;;;;;5086750;28;20442;-68
2022/11/24 12:12:42;;;;;;;2.37;0.90;;;8.90;99.90;;;;;;5083846;28;20904;-68
2022/11/24 12:15:21;;;;;;;5.30;1.00;;;8.90;99.90;;;;;;5082725;28;20478;-68
2022/11/24 12:18:11;;;;;;;4.53;0.80;;;8.80;99.90;;;;;;5087043;28;20425;-68
2022/11/24 12:20:59;;;;;;;2.40;0.83;;;8.70;99.90;;;;;;5088483;28;20495;-68
2022/11/24 12:23:52;;;;;;;2.43;1.00;;;8.60;99.90;;;;;;5089105;28;20801;-68
2022/11/24 12:26:28;;;;;;;1.70;0.87;;;8.70;99.90;;;;;;5088621;28;20440;-68
2022/11/24 12:29:15;;;;;;;2.57;0.90;;;8.70;99.90;;;;;;5090161;28;20441;-68
2022/11/24 12:32:09;;;;;;;3.10;1.10;;;8.70;99.90;;;;;;5078242;28;20473;-68
2022/11/24 12:35:03;;;;;;;13.17;2.00;;;8.70;99.90;;;;;;5048377;28;20595;-68
2022/11/24 12:37:56;;;;;;;6.93;1.13;;;8.60;99.90;;;;;;5084296;28;20426;-67
2022/11/24 12:40:51;;;;;;;3.13;1.10;;;8.50;99.90;;;;;;5086173;28;20443;-68
2022/11/24 12:43:37;;;;;;;5.23;0.90;;;8.40;99.90;;;;;;5084771;28;20434;-68
2022/11/24 12:46:26;;;;;;;3.03;0.80;;;8.50;99.90;;;;;;5083376;28;20430;-68
2022/11/24 12:49:20;;;;;;;6.20;1.53;;;8.70;99.90;;;;;;5085063;28;20918;-68
2022/11/24 12:51:53;;;;;;;6.10;0.87;;;8.80;99.90;;;;;;5086730;28;20467;-68
2022/11/24 12:54:20;;;;;;;2.27;1.00;;;9.00;99.90;;;;;;5091817;28;20441;-68
2022/11/24 12:56:46;;;;;;;2.03;0.90;;;9.00;99.90;;;;;;5091374;28;20438;-68
2022/11/24 12:59:17;;;;;;;1.20;0.60;;;9.10;99.90;;;;;;5089195;28;20479;-66
2022/11/24 13:02:02;;;;;;;3.00;1.03;;;9.20;99.90;;;;;;5084283;28;20184;-67
2022/11/24 13:05:18;;;;;;;7.93;1.27;;;9.30;99.90;;;;;;5079940;28;20443;-68
2022/11/24 13:07:48;;;;;;;2.13;1.07;;;9.30;99.90;;;;;;5026349;28;20516;-68
2022/11/24 13:10:23;;;;;;;1.93;1.00;;;9.40;99.90;;;;;;5024252;28;22206;-68
2022/11/24 13:13:00;;;;;;;1.93;0.90;;;9.30;99.90;;;;;;5062547;28;20441;-68